This is the latest recevied weather packets stored in our database for station/object DL8TF-13. If no packets are shown the sender has not sent any weather packets the latest 1 day(s).
| Time | Temp. | Humidity | Pressure | Rain* | Wind** | Luminosity | Snow |
|---|---|---|---|---|---|---|---|
| 1778082260 | 14.44° C | 100% | 976 hPa | - | - | - | - |
| 1778081660 | 14.44° C | 100% | 975 hPa | - | - | - | - |
| 1778080460 | 13.89° C | 100% | 976 hPa | - | - | - | - |
| 1778079260 | 14.44° C | 100% | 975 hPa | - | - | - | - |
| 1778078660 | 14.44° C | 100% | 975 hPa | - | - | - | - |
| 1778078060 | 13.89° C | 100% | 975 hPa | - | - | - | - |
| 1778073260 | 20.56° C | 39% | 974 hPa | - | - | - | - |
| 1778070859 | 21.67° C | 40% | 974 hPa | - | - | - | - |
| 1778070259 | 21.11° C | 39% | 974 hPa | - | - | - | - |
| 1778069659 | 21.11° C | 39% | 974 hPa | - | - | - | - |
| 1778069059 | 21.67° C | 41% | 974 hPa | - | - | - | - |
| 1778068459 | 21.11° C | 41% | 974 hPa | - | - | - | - |
| 1778063658 | 18.89° C | 53% | 975 hPa | - | - | - | - |
| 1778063058 | 18.89° C | 55% | 975 hPa | - | - | - | - |
| 1778062458 | 18.33° C | 62% | 975 hPa | - | - | - | - |
| 1778061858 | 17.78° C | 63% | 975 hPa | - | - | - | - |
| 1778061258 | 17.22° C | 67% | 975 hPa | - | - | - | - |
| 1778060658 | 17.22° C | 67% | 975 hPa | - | - | - | - |
| 1778060058 | 17.22° C | 70% | 975 hPa | - | - | - | - |
| 1778059458 | 16.67° C | 72% | 975 hPa | - | - | - | - |
| 1778055258 | 14.44° C | 86% | 975 hPa | - | - | - | - |
| 1778054057 | 13.89° C | 92% | 975 hPa | - | - | - | - |
| 1778053457 | 13.89° C | 100% | 975 hPa | - | - | - | - |
| 1778052857 | 13.33° C | 100% | 975 hPa | - | - | - | - |
| 1778052257 | 13.33° C | 100% | 975 hPa | - | - | - | - |
* Rain since midnight (hover to see other rain measurements)
** Current wind speed in m/s (hover to see current wind gust speed)